Time;durP1;ratioP1;P1;durP2;ratioP2;P2;SDS_P1;SDS_P2;PMS_P1;PMS_P2;Temp;Humidity;BMP_temperature;BMP_pressure;BME280_temperature;BME280_humidity;BME280_pressure;Samples;Min_cycle;Max_cycle;Signal;HPM_P1;HPM_P2
2023/07/05 00:00:53;;;;;;;2.10;2.00;;;;;;;;;;5024275;28;20475;-70
2023/07/05 00:03:19;;;;;;;1.50;1.50;;;;;;;;;;5032080;28;20430;-70
2023/07/05 00:05:45;;;;;;;1.73;1.63;;;;;;;;;;5033205;28;20423;-70
2023/07/05 00:08:11;;;;;;;1.70;1.60;;;;;;;;;;5031981;28;20800;-70
2023/07/05 00:10:37;;;;;;;1.80;1.70;;;;;;;;;;5031287;28;20523;-70
2023/07/05 00:13:03;;;;;;;1.33;1.30;;;;;;;;;;5032891;28;20411;-70
2023/07/05 00:15:30;;;;;;;1.30;1.30;;;;;;;;;;5033042;28;20465;-70
2023/07/05 00:17:56;;;;;;;1.30;1.30;;;;;;;;;;5032556;28;20467;-70
2023/07/05 00:20:23;;;;;;;1.87;1.77;;;;;;;;;;5030776;28;20501;-70
2023/07/05 00:22:49;;;;;;;2.67;1.97;;;;;;;;;;5021229;28;20947;-70
2023/07/05 00:25:15;;;;;;;4.60;1.97;;;;;;;;;;5032087;28;20549;-70
2023/07/05 00:27:41;;;;;;;2.20;1.97;;;;;;;;;;5032491;28;20634;-70
2023/07/05 00:30:07;;;;;;;1.70;1.60;;;;;;;;;;5040532;28;20965;-70
2023/07/05 00:32:33;;;;;;;1.40;1.40;;;;;;;;;;5039141;28;20439;-70
2023/07/05 00:34:59;;;;;;;3.13;1.43;;;;;;;;;;5032407;28;20463;-70
2023/07/05 00:37:25;;;;;;;1.67;1.57;;;;;;;;;;5032812;28;20463;-71
2023/07/05 00:39:51;;;;;;;2.10;1.63;;;;;;;;;;5031880;28;20451;-70
2023/07/05 00:42:17;;;;;;;2.17;2.07;;;;;;;;;;5031624;28;20493;-70
2023/07/05 00:45:03;;;;;;;1.67;1.63;;;;;;;;;;5032558;28;20423;-70
2023/07/05 00:47:31;;;;;;;1.50;1.50;;;;;;;;;;5032800;28;20851;-70
2023/07/05 00:50:00;;;;;;;6.13;1.23;;;;;;;;;;5035967;28;20554;-70
2023/07/05 00:52:26;;;;;;;1.70;1.60;;;;;;;;;;5031633;28;20469;-71
2023/07/05 00:54:53;;;;;;;1.43;1.30;;;;;;;;;;5031298;28;20928;-70
2023/07/05 00:57:21;;;;;;;1.83;1.40;;;;;;;;;;5032204;28;20514;-70
2023/07/05 00:59:51;;;;;;;1.67;1.50;;;;;;;;;;5036669;28;20501;-70
2023/07/05 01:02:18;;;;;;;3.07;1.53;;;;;;;;;;5031639;28;20435;-70
2023/07/05 01:04:44;;;;;;;1.57;1.50;;;;;;;;;;5031388;28;20492;-70
2023/07/05 01:07:10;;;;;;;1.60;1.60;;;;;;;;;;5032481;28;20419;-70
2023/07/05 01:09:36;;;;;;;3.80;1.40;;;;;;;;;;5002860;28;20971;-70
2023/07/05 01:12:12;;;;;;;1.00;1.00;;;;;;;;;;5030883;28;20419;-70
2023/07/05 01:14:47;;;;;;;4.53;1.30;;;;;;;;;;5032818;28;20469;-71
2023/07/05 01:17:46;;;;;;;2.33;1.27;;;;;;;;;;5012785;28;20448;-70
2023/07/05 01:20:12;;;;;;;1.23;1.23;;;;;;;;;;4968724;28;20428;-70
2023/07/05 01:22:44;;;;;;;1.60;1.60;;;;;;;;;;5021082;28;20833;-70
2023/07/05 01:25:28;;;;;;;2.63;1.83;;;;;;;;;;5018975;28;20180;-70
2023/07/05 01:27:54;;;;;;;1.50;1.50;;;;;;;;;;5029566;28;20423;-70
2023/07/05 01:30:32;;;;;;;2.07;1.47;;;;;;;;;;5032955;28;20973;-70
2023/07/05 01:33:08;;;;;;;1.10;1.10;;;;;;;;;;5032036;28;20191;-70
2023/07/05 01:35:37;;;;;;;0.90;0.90;;;;;;;;;;5017429;28;20451;-70
2023/07/05 01:38:06;;;;;;;1.10;1.10;;;;;;;;;;5020963;28;20470;-70
2023/07/05 01:40:32;;;;;;;3.93;1.60;;;;;;;;;;5032533;28;20490;-70
2023/07/05 01:42:59;;;;;;;1.17;1.13;;;;;;;;;;5031347;28;20463;-70
2023/07/05 01:45:30;;;;;;;1.57;1.47;;;;;;;;;;5013980;28;20192;-71
2023/07/05 01:48:03;;;;;;;1.10;1.10;;;;;;;;;;5035561;28;20490;-70
2023/07/05 01:50:41;;;;;;;1.20;1.20;;;;;;;;;;5035030;28;20439;-71
2023/07/05 01:53:25;;;;;;;1.00;1.00;;;;;;;;;;5038001;28;20443;-70
2023/07/05 01:56:02;;;;;;;2.70;1.37;;;;;;;;;;5031699;28;20461;-71
2023/07/05 01:58:30;;;;;;;1.13;1.10;;;;;;;;;;5034329;28;20475;-70
2023/07/05 02:00:57;;;;;;;1.33;1.33;;;;;;;;;;5034670;28;20427;-70
2023/07/05 02:03:24;;;;;;;1.60;1.50;;;;;;;;;;5035544;28;20435;-70
2023/07/05 02:05:50;;;;;;;1.50;1.23;;;;;;;;;;5041573;28;21033;-70
2023/07/05 02:08:17;;;;;;;3.97;1.30;;;;;;;;;;5042235;28;20431;-71
2023/07/05 02:10:43;;;;;;;3.70;1.20;;;;;;;;;;5034573;28;20538;-70
2023/07/05 02:13:10;;;;;;;1.60;1.60;;;;;;;;;;5035167;28;20986;-70
2023/07/05 02:15:38;;;;;;;1.53;1.40;;;;;;;;;;5034284;28;20546;-71
2023/07/05 02:18:04;;;;;;;1.50;1.50;;;;;;;;;;5034758;28;20517;-70
2023/07/05 02:20:30;;;;;;;1.50;1.50;;;;;;;;;;5035195;28;20433;-70
2023/07/05 02:22:56;;;;;;;1.40;1.30;;;;;;;;;;5042714;28;20529;-70
2023/07/05 02:25:23;;;;;;;2.30;2.23;;;;;;;;;;5051300;28;20962;-70
2023/07/05 02:27:49;;;;;;;1.33;1.23;;;;;;;;;;5048468;28;20457;-70
2023/07/05 02:30:15;;;;;;;1.50;1.50;;;;;;;;;;5034357;28;20435;-70
2023/07/05 02:32:41;;;;;;;1.70;1.20;;;;;;;;;;5035038;28;20491;-70
2023/07/05 02:35:08;;;;;;;1.30;1.30;;;;;;;;;;5033420;28;20877;-71
2023/07/05 02:37:34;;;;;;;1.53;1.30;;;;;;;;;;5040759;28;20475;-70
2023/07/05 02:40:00;;;;;;;2.40;1.20;;;;;;;;;;5038069;28;20448;-70
2023/07/05 02:42:27;;;;;;;1.43;1.27;;;;;;;;;;5035650;28;20434;-70
2023/07/05 02:44:52;;;;;;;2.67;1.13;;;;;;;;;;5045391;28;20442;-70
2023/07/05 02:47:19;;;;;;;1.40;1.30;;;;;;;;;;5033293;28;20439;-70
2023/07/05 02:49:46;;;;;;;1.13;1.13;;;;;;;;;;5029296;28;21019;-70
2023/07/05 02:52:12;;;;;;;0.90;0.90;;;;;;;;;;5053241;28;20525;-71
2023/07/05 02:54:38;;;;;;;1.60;1.17;;;;;;;;;;5054436;28;20419;-70
2023/07/05 02:57:04;;;;;;;2.77;1.83;;;;;;;;;;5033878;28;20922;-70
2023/07/05 02:59:30;;;;;;;1.30;1.30;;;;;;;;;;5033790;28;20601;-70
2023/07/05 03:01:56;;;;;;;0.80;0.80;;;;;;;;;;5035719;28;20427;-70
2023/07/05 03:04:22;;;;;;;1.10;1.10;;;;;;;;;;5033706;28;20428;-70
2023/07/05 03:06:48;;;;;;;1.20;1.20;;;;;;;;;;5038401;28;20435;-71
2023/07/05 03:09:15;;;;;;;1.40;1.40;;;;;;;;;;5033786;28;20478;-71
2023/07/05 03:11:41;;;;;;;1.10;0.90;;;;;;;;;;5033229;28;20431;-70
2023/07/05 03:14:07;;;;;;;1.30;1.30;;;;;;;;;;5034188;28;20430;-70
2023/07/05 03:16:33;;;;;;;1.23;1.23;;;;;;;;;;5033051;28;20431;-70
2023/07/05 03:18:59;;;;;;;1.20;1.20;;;;;;;;;;5033208;28;20475;-70
2023/07/05 03:21:25;;;;;;;1.20;1.20;;;;;;;;;;5051117;28;20922;-70
2023/07/05 03:23:51;;;;;;;1.43;1.33;;;;;;;;;;5053808;28;20902;-70
2023/07/05 03:26:17;;;;;;;1.20;1.10;;;;;;;;;;5033894;28;20446;-70
2023/07/05 03:28:43;;;;;;;1.00;1.00;;;;;;;;;;5032001;28;20957;-70
2023/07/05 03:31:11;;;;;;;1.23;1.23;;;;;;;;;;5033454;28;20411;-70
2023/07/05 03:33:37;;;;;;;2.30;1.47;;;;;;;;;;5033703;28;20427;-70
2023/07/05 03:36:03;;;;;;;1.40;1.40;;;;;;;;;;5048402;28;20509;-70
2023/07/05 03:38:29;;;;;;;3.60;1.50;;;;;;;;;;5036282;28;20987;-70
2023/07/05 03:40:57;;;;;;;1.60;1.40;;;;;;;;;;5033148;28;20419;-70
2023/07/05 03:43:22;;;;;;;1.83;1.67;;;;;;;;;;5031978;28;20439;-70
2023/07/05 03:45:48;;;;;;;1.53;1.50;;;;;;;;;;5032495;28;20485;-70
2023/07/05 03:48:14;;;;;;;1.47;1.10;;;;;;;;;;5040752;28;21004;-70
2023/07/05 03:50:40;;;;;;;1.50;1.50;;;;;;;;;;5048359;28;20842;-70
2023/07/05 03:53:06;;;;;;;1.07;1.07;;;;;;;;;;5033602;28;20453;-70
2023/07/05 03:55:35;;;;;;;1.57;1.47;;;;;;;;;;5032660;28;20447;-70
2023/07/05 03:58:01;;;;;;;1.10;1.10;;;;;;;;;;5031347;28;20529;-70
2023/07/05 04:00:27;;;;;;;2.20;2.10;;;;;;;;;;5047098;28;20462;-70
2023/07/05 04:02:54;;;;;;;2.00;1.83;;;;;;;;;;5033314;28;20461;-70
2023/07/05 04:05:20;;;;;;;1.53;1.53;;;;;;;;;;5035533;28;20447;-70
2023/07/05 04:07:46;;;;;;;1.20;1.20;;;;;;;;;;5032346;28;20510;-70
2023/07/05 04:10:13;;;;;;;1.47;1.40;;;;;;;;;;5033115;28;20966;-71
2023/07/05 04:12:39;;;;;;;1.57;1.57;;;;;;;;;;5032805;28;20419;-70
2023/07/05 04:15:05;;;;;;;1.70;1.30;;;;;;;;;;5032930;28;20415;-70
2023/07/05 04:17:31;;;;;;;1.47;1.47;;;;;;;;;;5033064;28;20415;-70
2023/07/05 04:19:57;;;;;;;1.70;1.60;;;;;;;;;;5031965;28;20455;-70
2023/07/05 04:22:23;;;;;;;1.87;1.77;;;;;;;;;;5033047;28;20451;-70
2023/07/05 04:24:49;;;;;;;1.40;1.17;;;;;;;;;;5033082;28;20538;-70
2023/07/05 04:27:18;;;;;;;2.80;1.30;;;;;;;;;;5032032;28;20913;-71
2023/07/05 04:29:44;;;;;;;1.23;1.23;;;;;;;;;;5031327;28;20865;-70
2023/07/05 04:32:10;;;;;;;1.70;1.70;;;;;;;;;;5032616;28;20494;-70
2023/07/05 04:34:36;;;;;;;1.93;1.83;;;;;;;;;;5023598;28;20466;-70
2023/07/05 04:37:02;;;;;;;1.50;1.40;;;;;;;;;;5037842;28;20560;-70
2023/07/05 04:39:28;;;;;;;1.63;1.53;;;;;;;;;;5037091;28;20582;-70
2023/07/05 04:41:55;;;;;;;5.53;1.50;;;;;;;;;;5031163;28;20428;-70
2023/07/05 04:44:21;;;;;;;1.63;1.63;;;;;;;;;;5039385;28;20938;-70
2023/07/05 04:46:47;;;;;;;1.40;1.40;;;;;;;;;;5031425;28;20435;-70
2023/07/05 04:49:13;;;;;;;2.97;1.50;;;;;;;;;;5043167;28;20482;-70
2023/07/05 04:51:39;;;;;;;4.50;2.33;;;;;;;;;;5051607;28;20965;-70
2023/07/05 04:54:05;;;;;;;2.10;1.80;;;;;;;;;;5044354;28;20469;-70
2023/07/05 04:56:31;;;;;;;3.60;1.50;;;;;;;;;;5028747;28;20849;-70
2023/07/05 04:58:57;;;;;;;1.53;1.53;;;;;;;;;;5044564;28;20489;-70
2023/07/05 05:01:25;;;;;;;8.37;2.20;;;;;;;;;;5033842;28;20522;-70
2023/07/05 05:03:51;;;;;;;2.07;1.97;;;;;;;;;;5037744;28;20474;-70
2023/07/05 05:06:17;;;;;;;2.23;1.90;;;;;;;;;;5030540;28;20494;-70
2023/07/05 05:08:43;;;;;;;1.47;1.47;;;;;;;;;;5051047;28;20529;-70
2023/07/05 05:11:09;;;;;;;2.73;1.60;;;;;;;;;;5031216;28;20935;-70
2023/07/05 05:13:36;;;;;;;1.60;1.50;;;;;;;;;;5029925;28;20489;-70
2023/07/05 05:16:02;;;;;;;10.90;1.77;;;;;;;;;;5031356;28;20458;-70
2023/07/05 05:18:37;;;;;;;5.10;1.60;;;;;;;;;;5031344;28;20582;-70
2023/07/05 05:21:03;;;;;;;1.60;1.60;;;;;;;;;;5032868;28;20509;-70
2023/07/05 05:23:29;;;;;;;1.60;1.60;;;;;;;;;;5034738;28;20446;-70
2023/07/05 05:25:56;;;;;;;2.10;1.90;;;;;;;;;;5047136;28;20438;-70
2023/07/05 05:28:22;;;;;;;1.63;1.53;;;;;;;;;;5045568;28;20805;-70
2023/07/05 05:30:48;;;;;;;1.27;1.27;;;;;;;;;;5035568;28;20411;-70
2023/07/05 05:33:15;;;;;;;2.00;1.73;;;;;;;;;;5036175;28;20938;-70
2023/07/05 05:35:51;;;;;;;1.67;1.57;;;;;;;;;;5036324;28;20431;-70
2023/07/05 05:38:17;;;;;;;2.27;1.60;;;;;;;;;;5034389;28;20469;-70
2023/07/05 05:40:43;;;;;;;1.70;1.70;;;;;;;;;;5032278;28;20450;-70
2023/07/05 05:43:09;;;;;;;1.63;1.63;;;;;;;;;;5034669;28;20465;-70
2023/07/05 05:45:35;;;;;;;2.80;1.20;;;;;;;;;;5035199;28;20466;-70
2023/07/05 05:48:01;;;;;;;1.40;1.30;;;;;;;;;;5048880;28;20942;-71
2023/07/05 05:50:27;;;;;;;1.90;1.33;;;;;;;;;;5035807;28;20435;-70
2023/07/05 05:52:53;;;;;;;1.87;1.50;;;;;;;;;;5035223;28;20423;-70
2023/07/05 05:55:19;;;;;;;3.60;1.60;;;;;;;;;;5047833;28;20443;-71
2023/07/05 05:57:45;;;;;;;9.50;1.30;;;;;;;;;;5034144;28;20596;-70
2023/07/05 06:00:12;;;;;;;12.60;1.20;;;;;;;;;;5032545;28;20454;-70
2023/07/05 06:02:38;;;;;;;1.20;1.20;;;;;;;;;;5034302;28;20427;-70
2023/07/05 06:05:05;;;;;;;1.43;1.30;;;;;;;;;;5034490;28;20427;-70
2023/07/05 06:07:31;;;;;;;1.43;1.17;;;;;;;;;;5038087;28;20438;-70
2023/07/05 06:09:57;;;;;;;1.60;1.47;;;;;;;;;;5041187;28;20546;-70
2023/07/05 06:12:23;;;;;;;1.27;1.17;;;;;;;;;;5039393;28;21912;-72
2023/07/05 06:14:49;;;;;;;1.90;1.20;;;;;;;;;;5043183;28;20487;-70
2023/07/05 06:17:15;;;;;;;5.10;1.67;;;;;;;;;;5030281;28;20446;-70
2023/07/05 06:19:41;;;;;;;6.57;1.60;;;;;;;;;;5031362;28;20888;-70
2023/07/05 06:22:07;;;;;;;2.70;1.07;;;;;;;;;;5029654;28;20530;-70
2023/07/05 06:24:33;;;;;;;1.50;1.50;;;;;;;;;;5029821;28;20457;-70
2023/07/05 06:26:59;;;;;;;2.87;1.87;;;;;;;;;;5030442;28;20447;-70
2023/07/05 06:29:25;;;;;;;1.50;1.50;;;;;;;;;;5045706;28;20446;-70
2023/07/05 06:31:51;;;;;;;1.53;1.47;;;;;;;;;;5030303;28;20435;-70
2023/07/05 06:34:17;;;;;;;2.00;1.90;;;;;;;;;;5029703;28;20939;-70
2023/07/05 06:36:43;;;;;;;1.40;1.27;;;;;;;;;;5031093;28;20439;-70
2023/07/05 06:39:09;;;;;;;1.50;1.50;;;;;;;;;;5030264;28;20513;-71
2023/07/05 06:41:35;;;;;;;1.70;1.60;;;;;;;;;;5031101;28;20491;-71
2023/07/05 06:44:01;;;;;;;1.30;1.30;;;;;;;;;;5030070;28;20537;-71
2023/07/05 06:46:27;;;;;;;1.80;1.70;;;;;;;;;;5031079;28;20756;-70
2023/07/05 06:48:53;;;;;;;3.43;1.60;;;;;;;;;;5043701;28;20518;-70
2023/07/05 06:51:19;;;;;;;1.23;1.20;;;;;;;;;;5044365;28;20448;-70
2023/07/05 06:53:45;;;;;;;1.53;1.10;;;;;;;;;;5025092;28;20526;-71
2023/07/05 06:56:11;;;;;;;2.20;1.73;;;;;;;;;;5029367;28;20483;-70
2023/07/05 06:58:37;;;;;;;2.70;1.60;;;;;;;;;;5026944;28;20478;-70
2023/07/05 07:01:03;;;;;;;1.37;1.37;;;;;;;;;;5029983;28;20459;-70
2023/07/05 07:03:30;;;;;;;1.53;1.43;;;;;;;;;;5029424;28;20427;-70
2023/07/05 07:05:57;;;;;;;1.60;1.60;;;;;;;;;;5044798;28;20934;-71
2023/07/05 07:08:24;;;;;;;1.07;1.07;;;;;;;;;;5030400;28;20453;-70
2023/07/05 07:10:50;;;;;;;1.40;1.30;;;;;;;;;;5030093;28;20849;-70
2023/07/05 07:13:16;;;;;;;1.40;1.30;;;;;;;;;;5029006;28;20439;-70
2023/07/05 07:15:42;;;;;;;1.70;1.60;;;;;;;;;;5029700;28;20492;-70
2023/07/05 07:18:09;;;;;;;1.43;1.43;;;;;;;;;;5029580;28;20581;-70
2023/07/05 07:20:35;;;;;;;1.83;1.50;;;;;;;;;;5029271;28;20799;-70
2023/07/05 07:23:01;;;;;;;3.10;1.27;;;;;;;;;;5043618;28;20447;-70
2023/07/05 07:25:27;;;;;;;1.50;1.40;;;;;;;;;;5028855;28;20470;-71
2023/07/05 07:27:53;;;;;;;1.50;1.40;;;;;;;;;;5030112;28;20419;-70
2023/07/05 07:30:19;;;;;;;1.10;1.10;;;;;;;;;;5028647;28;20811;-70
2023/07/05 07:32:48;;;;;;;1.37;1.30;;;;;;;;;;5029004;28;20473;-69
2023/07/05 07:35:15;;;;;;;1.53;1.23;;;;;;;;;;5029481;28;20900;-69
2023/07/05 07:37:41;;;;;;;1.07;1.07;;;;;;;;;;5028802;28;20454;-70
2023/07/05 07:40:08;;;;;;;1.13;1.10;;;;;;;;;;5039106;28;21769;-70
2023/07/05 07:42:34;;;;;;;1.10;1.10;;;;;;;;;;5016724;28;20528;-70
2023/07/05 07:45:00;;;;;;;1.60;1.30;;;;;;;;;;5026357;28;20583;-70
2023/07/05 07:47:26;;;;;;;1.40;1.30;;;;;;;;;;5027425;28;20422;-70
2023/07/05 07:49:52;;;;;;;3.47;1.60;;;;;;;;;;5026777;28;20470;-70
2023/07/05 07:52:19;;;;;;;1.23;1.13;;;;;;;;;;5027463;28;20427;-70
2023/07/05 07:54:45;;;;;;;2.57;2.27;;;;;;;;;;5027481;28;20434;-70
2023/07/05 07:57:11;;;;;;;3.33;1.50;;;;;;;;;;5026398;28;20454;-69
2023/07/05 07:59:41;;;;;;;0.90;0.90;;;;;;;;;;5029483;28;20490;-70
2023/07/05 08:02:11;;;;;;;1.30;1.30;;;;;;;;;;5044702;28;20431;-69
2023/07/05 08:04:43;;;;;;;0.90;0.90;;;;;;;;;;5029161;28;20475;-70
2023/07/05 08:07:09;;;;;;;1.03;1.03;;;;;;;;;;5029246;28;20439;-69
2023/07/05 08:09:35;;;;;;;1.33;1.33;;;;;;;;;;5029836;28;20431;-70
2023/07/05 08:12:00;;;;;;;3.93;1.40;;;;;;;;;;5027926;28;20493;-70
2023/07/05 08:14:28;;;;;;;0.90;0.90;;;;;;;;;;5029651;28;20450;-70
2023/07/05 08:16:54;;;;;;;2.40;1.40;;;;;;;;;;5029321;28;20435;-70
2023/07/05 08:19:20;;;;;;;1.40;1.30;;;;;;;;;;5029010;28;20498;-71
2023/07/05 08:21:47;;;;;;;2.20;1.10;;;;;;;;;;5028839;28;20439;-70
2023/07/05 08:24:14;;;;;;;1.23;1.23;;;;;;;;;;5029682;28;20442;-72
2023/07/05 08:26:41;;;;;;;6.10;1.40;;;;;;;;;;5029041;28;20427;-70
2023/07/05 08:29:08;;;;;;;2.50;1.00;;;;;;;;;;5029898;28;20826;-71
2023/07/05 08:31:34;;;;;;;1.00;1.00;;;;;;;;;;5020362;28;20443;-70
2023/07/05 08:34:01;;;;;;;1.63;1.53;;;;;;;;;;5022085;28;20473;-70
2023/07/05 08:36:32;;;;;;;1.23;0.97;;;;;;;;;;5025029;28;20427;-70
2023/07/05 08:38:59;;;;;;;1.70;1.60;;;;;;;;;;5028209;28;20522;-70
2023/07/05 08:41:44;;;;;;;1.60;1.60;;;;;;;;;;5043596;28;20420;-70
2023/07/05 08:44:22;;;;;;;4.40;1.27;;;;;;;;;;5026995;28;20518;-70
2023/07/05 08:46:50;;;;;;;1.33;1.20;;;;;;;;;;5028293;28;20458;-69
2023/07/05 08:49:20;;;;;;;1.20;1.20;;;;;;;;;;5024837;28;20490;-70
2023/07/05 08:51:46;;;;;;;1.73;1.73;;;;;;;;;;5026929;28;20504;-69
2023/07/05 08:54:13;;;;;;;1.70;1.60;;;;;;;;;;5028818;28;20443;-69
2023/07/05 08:56:47;;;;;;;1.60;1.60;;;;;;;;;;5031298;28;20415;-70
2023/07/05 08:59:14;;;;;;;4.23;1.30;;;;;;;;;;5032133;28;20598;-70
2023/07/05 09:01:42;;;;;;;2.20;1.93;;;;;;;;;;5045554;28;20869;-70
2023/07/05 09:04:10;;;;;;;1.40;1.40;;;;;;;;;;5029091;28;20526;-69
2023/07/05 09:06:56;;;;;;;3.40;1.67;;;;;;;;;;5026690;28;20443;-69
2023/07/05 09:09:30;;;;;;;1.20;1.20;;;;;;;;;;5031845;28;20427;-70
2023/07/05 09:12:06;;;;;;;1.63;1.40;;;;;;;;;;5031446;28;20435;-70
2023/07/05 09:14:34;;;;;;;1.10;1.10;;;;;;;;;;5030916;28;20430;-70
2023/07/05 09:17:03;;;;;;;1.57;1.57;;;;;;;;;;5032877;28;20446;-70
2023/07/05 09:19:29;;;;;;;1.60;1.50;;;;;;;;;;5031797;28;20490;-70
2023/07/05 09:22:07;;;;;;;1.30;1.30;;;;;;;;;;5047924;28;20471;-69
2023/07/05 09:24:41;;;;;;;1.33;1.33;;;;;;;;;;5047158;28;20927;-70
2023/07/05 09:27:12;;;;;;;1.27;1.27;;;;;;;;;;5032178;28;20424;-70
2023/07/05 09:29:47;;;;;;;1.87;1.80;;;;;;;;;;5032439;28;20437;-69
2023/07/05 09:32:17;;;;;;;2.20;2.10;;;;;;;;;;5032372;28;20533;-70
2023/07/05 09:34:49;;;;;;;4.03;2.20;;;;;;;;;;5030138;28;20509;-69
2023/07/05 09:37:20;;;;;;;3.13;3.03;;;;;;;;;;5031899;28;20431;-69
2023/07/05 09:40:05;;;;;;;6.40;2.90;;;;;;;;;;5031354;28;20487;-69
2023/07/05 09:42:49;;;;;;;3.27;3.07;;;;;;;;;;5031511;28;20431;-69
2023/07/05 09:45:16;;;;;;;3.73;3.63;;;;;;;;;;5029580;28;20561;-69
2023/07/05 09:47:44;;;;;;;4.37;3.90;;;;;;;;;;5031839;28;20447;-69
2023/07/05 09:50:20;;;;;;;3.97;3.77;;;;;;;;;;5029929;28;20986;-69
2023/07/05 09:52:48;;;;;;;4.67;4.47;;;;;;;;;;5029264;28;20454;-69
2023/07/05 09:55:15;;;;;;;3.93;3.73;;;;;;;;;;5024736;28;20764;-69
2023/07/05 09:57:42;;;;;;;3.33;3.23;;;;;;;;;;5036444;28;20439;-69
2023/07/05 10:00:22;;;;;;;4.50;4.30;;;;;;;;;;5023338;28;20447;-69
2023/07/05 10:02:48;;;;;;;4.40;4.20;;;;;;;;;;5039951;28;20569;-69
2023/07/05 10:05:16;;;;;;;5.23;4.40;;;;;;;;;;5022063;28;20475;-70
2023/07/05 10:07:52;;;;;;;6.77;5.40;;;;;;;;;;5021933;28;20512;-69
2023/07/05 10:10:18;;;;;;;7.60;6.93;;;;;;;;;;5022494;28;20616;-69
2023/07/05 10:12:44;;;;;;;3.80;3.60;;;;;;;;;;5020698;28;20439;-69
2023/07/05 10:15:21;;;;;;;4.60;4.40;;;;;;;;;;5016910;28;20435;-70
2023/07/05 10:17:48;;;;;;;3.67;3.57;;;;;;;;;;5021526;28;20447;-69
2023/07/05 10:20:26;;;;;;;9.10;4.70;;;;;;;;;;5023664;28;20452;-69
2023/07/05 10:23:04;;;;;;;4.43;4.23;;;;;;;;;;5023977;28;20478;-69
2023/07/05 10:25:33;;;;;;;4.63;4.43;;;;;;;;;;5028695;28;20486;-70
2023/07/05 10:28:00;;;;;;;5.30;5.10;;;;;;;;;;5029957;28;20446;-69
2023/07/05 10:30:27;;;;;;;3.67;3.57;;;;;;;;;;5030008;28;20470;-69
2023/07/05 10:33:12;;;;;;;3.67;3.37;;;;;;;;;;5029271;28;20528;-69
2023/07/05 10:35:45;;;;;;;9.30;4.17;;;;;;;;;;5029805;28;21011;-69
2023/07/05 10:38:26;;;;;;;3.87;3.73;;;;;;;;;;5029806;28;20463;-69
2023/07/05 10:40:53;;;;;;;4.97;4.60;;;;;;;;;;5031940;28;20431;-69
2023/07/05 10:43:19;;;;;;;5.23;4.93;;;;;;;;;;5030218;28;20422;-69
2023/07/05 10:45:46;;;;;;;3.77;3.60;;;;;;;;;;5028875;28;20808;-70
2023/07/05 10:48:24;;;;;;;3.57;3.47;;;;;;;;;;5006272;28;1083221;-70
2023/07/05 10:50:50;;;;;;;7.77;3.60;;;;;;;;;;5045705;28;20279;-69
2023/07/05 10:53:18;;;;;;;2.60;2.50;;;;;;;;;;5029328;28;20450;-70
2023/07/05 10:56:13;;;;;;;3.00;2.90;;;;;;;;;;5026899;28;20918;-69
2023/07/05 10:58:45;;;;;;;3.47;3.23;;;;;;;;;;5023148;28;20641;-70
2023/07/05 11:01:14;;;;;;;3.23;2.93;;;;;;;;;;5029070;28;20845;-70
2023/07/05 11:03:44;;;;;;;3.10;3.00;;;;;;;;;;5028702;28;20458;-69
2023/07/05 11:06:10;;;;;;;2.70;2.60;;;;;;;;;;5027999;28;20451;-69
2023/07/05 11:08:40;;;;;;;3.03;2.90;;;;;;;;;;5043629;28;20443;-70
2023/07/05 11:11:20;;;;;;;2.90;2.80;;;;;;;;;;5029219;28;20419;-70
2023/07/05 11:13:46;;;;;;;2.37;2.27;;;;;;;;;;5029054;28;20462;-69
2023/07/05 11:16:17;;;;;;;2.03;2.03;;;;;;;;;;5028635;28;20533;-70
2023/07/05 11:18:43;;;;;;;2.80;2.60;;;;;;;;;;5027589;28;20514;-69
2023/07/05 11:21:29;;;;;;;6.17;2.10;;;;;;;;;;5028919;28;20415;-69
2023/07/05 11:23:55;;;;;;;2.33;2.23;;;;;;;;;;5029308;28;20965;-69
2023/07/05 11:26:32;;;;;;;4.87;2.60;;;;;;;;;;5029770;28;20430;-70
2023/07/05 11:28:58;;;;;;;4.30;2.50;;;;;;;;;;5027571;28;20808;-69
2023/07/05 11:31:30;;;;;;;9.20;2.30;;;;;;;;;;5026263;28;20446;-69
2023/07/05 11:34:15;;;;;;;2.13;2.00;;;;;;;;;;5028628;28;20435;-69
2023/07/05 11:36:41;;;;;;;2.63;1.83;;;;;;;;;;5028832;28;20514;-69
2023/07/05 11:39:07;;;;;;;2.20;2.10;;;;;;;;;;5028747;28;20650;-70
2023/07/05 11:41:34;;;;;;;2.30;1.70;;;;;;;;;;5028827;28;20475;-69
2023/07/05 11:44:01;;;;;;;1.97;1.97;;;;;;;;;;5028117;28;20439;-70
2023/07/05 11:46:56;;;;;;;2.10;2.10;;;;;;;;;;5028377;28;20930;-70
2023/07/05 11:49:22;;;;;;;2.03;1.90;;;;;;;;;;5028510;28;20506;-69
2023/07/05 11:51:49;;;;;;;3.17;2.30;;;;;;;;;;5028752;28;20930;-69
2023/07/05 11:54:17;;;;;;;7.50;1.90;;;;;;;;;;5028723;28;20180;-69
2023/07/05 11:56:45;;;;;;;2.80;2.57;;;;;;;;;;5029212;28;20463;-70
2023/07/05 11:59:14;;;;;;;2.60;2.50;;;;;;;;;;5028162;28;20573;-70
2023/07/05 12:01:41;;;;;;;2.20;2.20;;;;;;;;;;5029319;28;20851;-69
2023/07/05 12:04:11;;;;;;;2.30;2.20;;;;;;;;;;5026898;28;20529;-69
2023/07/05 12:06:39;;;;;;;2.50;2.30;;;;;;;;;;5029001;28;20438;-70
2023/07/05 12:09:06;;;;;;;2.03;1.93;;;;;;;;;;5027651;28;20942;-69
2023/07/05 12:11:39;;;;;;;1.70;1.70;;;;;;;;;;5028734;28;20952;-70
2023/07/05 12:14:06;;;;;;;2.13;2.10;;;;;;;;;;5029195;28;20537;-69
2023/07/05 12:16:32;;;;;;;6.00;2.50;;;;;;;;;;5029681;28;20437;-69
2023/07/05 12:19:00;;;;;;;9.10;2.33;;;;;;;;;;5027952;28;20521;-69
2023/07/05 12:21:26;;;;;;;3.00;2.03;;;;;;;;;;5030666;28;20453;-70
2023/07/05 12:23:54;;;;;;;2.93;2.40;;;;;;;;;;5029068;28;20809;-69
2023/07/05 12:26:27;;;;;;;3.50;2.77;;;;;;;;;;5029056;28;21065;-69
2023/07/05 12:28:53;;;;;;;2.40;2.30;;;;;;;;;;5028279;28;20819;-69
2023/07/05 12:31:21;;;;;;;2.30;2.17;;;;;;;;;;5029463;28;20869;-69
2023/07/05 12:33:54;;;;;;;2.17;2.00;;;;;;;;;;5044603;28;20787;-70
2023/07/05 12:36:20;;;;;;;3.23;2.27;;;;;;;;;;5044529;28;20469;-70
2023/07/05 12:38:48;;;;;;;2.53;2.43;;;;;;;;;;5043918;28;20475;-69
2023/07/05 12:41:26;;;;;;;1.60;1.53;;;;;;;;;;5043584;28;20534;-70
2023/07/05 12:44:00;;;;;;;1.90;1.80;;;;;;;;;;5028308;28;20446;-70
2023/07/05 12:46:27;;;;;;;2.93;2.20;;;;;;;;;;5027246;28;20446;-69
2023/07/05 12:48:54;;;;;;;2.80;2.70;;;;;;;;;;5042274;28;20489;-69
2023/07/05 12:51:21;;;;;;;2.17;2.17;;;;;;;;;;5027798;28;20428;-70
2023/07/05 12:53:48;;;;;;;2.40;2.40;;;;;;;;;;5028665;28;20443;-69
2023/07/05 12:56:17;;;;;;;8.67;2.57;;;;;;;;;;5043759;28;20475;-70
2023/07/05 12:58:51;;;;;;;5.77;2.50;;;;;;;;;;5028449;28;20479;-69
2023/07/05 13:01:18;;;;;;;2.37;2.27;;;;;;;;;;5029803;28;21275;-69
2023/07/05 13:03:46;;;;;;;2.17;2.07;;;;;;;;;;5028789;28;20431;-69
2023/07/05 13:06:12;;;;;;;1.80;1.70;;;;;;;;;;5029500;28;20465;-70
2023/07/05 13:08:49;;;;;;;2.17;2.17;;;;;;;;;;5028783;28;20518;-69
2023/07/05 13:11:19;;;;;;;2.67;2.57;;;;;;;;;;5027912;28;20447;-69
2023/07/05 13:13:45;;;;;;;2.10;1.97;;;;;;;;;;5028495;28;20852;-70
2023/07/05 13:16:20;;;;;;;2.17;1.93;;;;;;;;;;5028851;28;20431;-69
2023/07/05 13:19:05;;;;;;;1.70;1.70;;;;;;;;;;5028986;28;20482;-69
2023/07/05 13:21:37;;;;;;;2.20;1.87;;;;;;;;;;5017778;28;20452;-69
2023/07/05 13:24:03;;;;;;;2.00;1.90;;;;;;;;;;5028269;28;20435;-70
2023/07/05 13:26:31;;;;;;;1.77;1.77;;;;;;;;;;5025990;28;20562;-69
2023/07/05 13:28:58;;;;;;;2.30;2.20;;;;;;;;;;5029068;28;20454;-70
2023/07/05 13:31:24;;;;;;;2.00;2.00;;;;;;;;;;5042310;28;20431;-69
2023/07/05 13:33:57;;;;;;;2.43;2.23;;;;;;;;;;5028667;28;20957;-69
2023/07/05 13:36:24;;;;;;;2.40;1.93;;;;;;;;;;5029518;28;20430;-70
2023/07/05 13:38:50;;;;;;;1.60;1.50;;;;;;;;;;5028536;28;20479;-69
2023/07/05 13:41:24;;;;;;;3.70;2.00;;;;;;;;;;5024420;28;20461;-69
2023/07/05 13:43:50;;;;;;;6.20;4.03;;;;;;;;;;5032152;28;20492;-69
2023/07/05 13:46:16;;;;;;;1.80;1.80;;;;;;;;;;5032718;28;20923;-69
2023/07/05 13:48:42;;;;;;;1.97;1.90;;;;;;;;;;5045666;28;20493;-70
2023/07/05 13:51:15;;;;;;;1.97;1.87;;;;;;;;;;5031759;28;20470;-70
2023/07/05 13:53:41;;;;;;;1.60;1.50;;;;;;;;;;5032581;28;20431;-70
2023/07/05 13:56:07;;;;;;;1.60;1.60;;;;;;;;;;5032057;28;20561;-70
2023/07/05 13:58:33;;;;;;;10.10;2.90;;;;;;;;;;5031331;28;20462;-69
2023/07/05 14:00:59;;;;;;;1.60;1.50;;;;;;;;;;5031593;28;20430;-70
2023/07/05 14:03:25;;;;;;;9.60;2.43;;;;;;;;;;5030922;28;20435;-70
2023/07/05 14:05:51;;;;;;;2.53;2.37;;;;;;;;;;5031982;28;20536;-70
2023/07/05 14:08:18;;;;;;;1.93;1.80;;;;;;;;;;5031335;28;20451;-69
2023/07/05 14:10:47;;;;;;;1.50;1.40;;;;;;;;;;5029769;28;20435;-70
2023/07/05 14:13:14;;;;;;;1.60;1.60;;;;;;;;;;5021059;28;20502;-70
2023/07/05 14:15:41;;;;;;;1.80;1.70;;;;;;;;;;5029334;28;20442;-70
2023/07/05 14:18:08;;;;;;;2.20;2.07;;;;;;;;;;5031774;28;20513;-70
2023/07/05 14:20:35;;;;;;;1.43;1.40;;;;;;;;;;5031460;28;20519;-70
2023/07/05 14:23:02;;;;;;;1.60;1.50;;;;;;;;;;5031294;28;20431;-70
2023/07/05 14:25:29;;;;;;;5.40;1.47;;;;;;;;;;5030780;28;20918;-70
2023/07/05 14:28:00;;;;;;;1.10;1.10;;;;;;;;;;5030206;28;20427;-70
2023/07/05 14:30:27;;;;;;;1.67;1.57;;;;;;;;;;5031455;28;21080;-70
2023/07/05 14:32:53;;;;;;;1.87;1.77;;;;;;;;;;5031224;28;20487;-70
2023/07/05 14:35:21;;;;;;;2.00;2.00;;;;;;;;;;5031152;28;20432;-70
2023/07/05 14:37:48;;;;;;;1.20;1.20;;;;;;;;;;5031357;28;20446;-70
2023/07/05 14:40:14;;;;;;;2.00;1.90;;;;;;;;;;5031438;28;20503;-69
2023/07/05 14:42:41;;;;;;;1.80;1.70;;;;;;;;;;5030448;28;20431;-70
2023/07/05 14:45:30;;;;;;;1.43;1.33;;;;;;;;;;5032092;28;20446;-70
2023/07/05 14:47:59;;;;;;;2.10;2.10;;;;;;;;;;5028439;28;20429;-70
2023/07/05 14:50:26;;;;;;;2.83;1.70;;;;;;;;;;5030937;28;20438;-69